Time;durP1;ratioP1;P1;durP2;ratioP2;P2;SDS_P1;SDS_P2;PMS_P1;PMS_P2;Temp;Humidity;BMP_temperature;BMP_pressure;BME280_temperature;BME280_humidity;BME280_pressure;Samples;Min_cycle;Max_cycle;Signal;HPM_P1;HPM_P2
2022/03/23 00:01:31;;;;;;;10.13;7.13;;;;;;;;;;5091398;28;20039;-75
2022/03/23 00:03:57;;;;;;;9.77;6.90;;;;;;;;;;5091222;28;20051;-76
2022/03/23 00:06:24;;;;;;;10.20;7.55;;;;;;;;;;5089989;28;20441;-76
2022/03/23 00:08:50;;;;;;;10.15;6.60;;;;;;;;;;5091148;28;20024;-77
2022/03/23 00:11:17;;;;;;;10.23;7.88;;;;;;;;;;5091022;28;20475;-75
2022/03/23 00:13:43;;;;;;;10.75;7.35;;;;;;;;;;5091049;28;20055;-73
2022/03/23 00:16:10;;;;;;;11.27;7.30;;;;;;;;;;5091058;28;20483;-75
2022/03/23 00:18:36;;;;;;;10.10;8.05;;;;;;;;;;5091351;28;20024;-77
2022/03/23 00:21:02;;;;;;;12.00;7.45;;;;;;;;;;5091329;28;20057;-75
2022/03/23 00:23:28;;;;;;;11.52;7.95;;;;;;;;;;5091523;28;20422;-80
2022/03/23 00:25:54;;;;;;;9.20;6.82;;;;;;;;;;5090464;28;20092;-75
2022/03/23 00:28:20;;;;;;;12.70;8.27;;;;;;;;;;5091054;28;20020;-79
2022/03/23 00:30:50;;;;;;;8.35;6.57;;;;;;;;;;5090846;28;20028;-77
2022/03/23 00:33:16;;;;;;;11.25;6.85;;;;;;;;;;5092985;28;20154;-78
2022/03/23 00:35:43;;;;;;;9.80;7.18;;;;;;;;;;5094919;28;20550;-79
2022/03/23 00:38:09;;;;;;;12.45;7.15;;;;;;;;;;5093929;28;20494;-76
2022/03/23 00:40:37;;;;;;;10.45;7.63;;;;;;;;;;5094340;28;20032;-77
2022/03/23 00:43:03;;;;;;;10.52;7.30;;;;;;;;;;5095175;28;20016;-77
2022/03/23 00:45:29;;;;;;;10.52;7.15;;;;;;;;;;5093982;28;20139;-77
2022/03/23 00:47:56;;;;;;;9.77;6.85;;;;;;;;;;5094718;28;20077;-74
2022/03/23 00:50:22;;;;;;;9.18;6.93;;;;;;;;;;5094957;28;20035;-74
2022/03/23 00:52:48;;;;;;;9.82;7.05;;;;;;;;;;5094640;28;20021;-77
2022/03/23 00:55:15;;;;;;;11.77;7.05;;;;;;;;;;5094347;28;20048;-74
2022/03/23 00:57:41;;;;;;;9.40;6.90;;;;;;;;;;5094483;28;20023;-74
2022/03/23 01:00:12;;;;;;;9.55;7.07;;;;;;;;;;5093404;28;20464;-75
2022/03/23 01:02:42;;;;;;;10.02;7.53;;;;;;;;;;5094646;28;20027;-74
2022/03/23 01:05:09;;;;;;;9.15;7.35;;;;;;;;;;5093270;28;20031;-72
2022/03/23 01:07:35;;;;;;;10.07;6.80;;;;;;;;;;5094363;28;20466;-72
2022/03/23 01:10:01;;;;;;;9.02;6.50;;;;;;;;;;5093356;28;20028;-73
2022/03/23 01:12:27;;;;;;;10.65;7.57;;;;;;;;;;5093139;28;20028;-72
2022/03/23 01:14:53;;;;;;;9.23;6.47;;;;;;;;;;5092841;28;20024;-72
2022/03/23 01:17:19;;;;;;;12.05;7.22;;;;;;;;;;5094326;28;20092;-72
2022/03/23 01:19:45;;;;;;;13.20;7.60;;;;;;;;;;5094077;28;20175;-77
2022/03/23 01:22:11;;;;;;;11.02;7.68;;;;;;;;;;5092995;28;20119;-73
2022/03/23 01:24:37;;;;;;;10.05;6.97;;;;;;;;;;5093729;28;20027;-76
2022/03/23 01:27:03;;;;;;;11.30;7.45;;;;;;;;;;5091580;28;20028;-79
2022/03/23 01:29:30;;;;;;;8.10;6.88;;;;;;;;;;5093278;28;20024;-77
2022/03/23 01:31:56;;;;;;;9.73;6.68;;;;;;;;;;5092722;28;20035;-75
2022/03/23 01:34:22;;;;;;;11.63;6.85;;;;;;;;;;5093021;28;20058;-77
2022/03/23 01:36:48;;;;;;;9.68;7.07;;;;;;;;;;5092690;28;20111;-77
2022/03/23 01:39:15;;;;;;;9.43;7.07;;;;;;;;;;5091329;28;20470;-77
2022/03/23 01:41:41;;;;;;;9.20;6.75;;;;;;;;;;5092125;28;20421;-76
2022/03/23 01:44:20;;;;;;;8.25;6.75;;;;;;;;;;5092363;28;20042;-77
2022/03/23 01:47:06;;;;;;;8.90;7.10;;;;;;;;;;5092587;28;20024;-82
2022/03/23 01:49:32;;;;;;;9.25;6.72;;;;;;;;;;5092893;28;20107;-73
2022/03/23 01:51:58;;;;;;;11.68;6.40;;;;;;;;;;5092643;28;20028;-76
2022/03/23 01:54:24;;;;;;;9.32;6.68;;;;;;;;;;5092559;28;20028;-80
2022/03/23 01:56:50;;;;;;;10.05;6.78;;;;;;;;;;5092343;28;20024;-75
2022/03/23 01:59:18;;;;;;;9.07;6.72;;;;;;;;;;5091314;28;20024;-76
2022/03/23 02:01:44;;;;;;;10.95;7.03;;;;;;;;;;5090913;28;20081;-74
2022/03/23 02:04:10;;;;;;;10.15;7.05;;;;;;;;;;5091801;28;20024;-75
2022/03/23 02:06:37;;;;;;;13.38;7.07;;;;;;;;;;5091783;28;20028;-74
2022/03/23 02:09:04;;;;;;;8.18;6.55;;;;;;;;;;5092368;28;20110;-74
2022/03/23 02:11:32;;;;;;;9.90;7.07;;;;;;;;;;5091349;28;20028;-71
2022/03/23 02:13:59;;;;;;;11.05;7.18;;;;;;;;;;5091352;28;20548;-72
2022/03/23 02:16:25;;;;;;;10.38;7.35;;;;;;;;;;5090886;28;20036;-74
2022/03/23 02:18:51;;;;;;;10.32;7.05;;;;;;;;;;5091969;28;20024;-76
2022/03/23 02:21:17;;;;;;;10.10;7.22;;;;;;;;;;5091717;28;20024;-77
2022/03/23 02:23:43;;;;;;;10.23;7.03;;;;;;;;;;5091511;28;20089;-73
2022/03/23 02:26:09;;;;;;;10.95;6.93;;;;;;;;;;5052096;28;1116934;-72
2022/03/23 02:28:36;;;;;;;12.48;7.65;;;;;;;;;;5092469;28;20073;-72
2022/03/23 02:31:02;;;;;;;10.20;7.00;;;;;;;;;;5092058;28;20028;-70
2022/03/23 02:33:29;;;;;;;11.10;6.93;;;;;;;;;;5093303;28;20103;-71
2022/03/23 02:35:55;;;;;;;8.75;7.03;;;;;;;;;;5092535;28;20036;-72
2022/03/23 02:38:21;;;;;;;8.23;6.22;;;;;;;;;;5092926;28;20073;-75
2022/03/23 02:40:48;;;;;;;9.98;7.40;;;;;;;;;;5092254;28;20039;-75
2022/03/23 02:43:14;;;;;;;7.57;6.53;;;;;;;;;;5092462;28;20176;-72
2022/03/23 02:45:40;;;;;;;9.50;6.65;;;;;;;;;;5092375;28;20028;-75
2022/03/23 02:48:07;;;;;;;8.57;6.78;;;;;;;;;;5092616;28;20027;-74
2022/03/23 02:50:35;;;;;;;9.77;7.05;;;;;;;;;;5092411;28;20028;-73
2022/03/23 03:04:08;;;;;;;8.80;7.03;;;;;;;;;;5072171;28;20104;-75
2022/03/23 03:06:34;;;;;;;8.40;6.55;;;;;;;;;;5071764;28;20032;-72
2022/03/23 03:09:00;;;;;;;8.88;6.75;;;;;;;;;;5072245;28;20069;-76
2022/03/23 03:11:26;;;;;;;9.25;7.43;;;;;;;;;;5077757;28;20039;-72
2022/03/23 03:13:52;;;;;;;10.25;7.30;;;;;;;;;;5091969;28;20020;-72
2022/03/23 03:16:19;;;;;;;10.20;7.25;;;;;;;;;;5090594;28;20109;-77
2022/03/23 03:18:46;;;;;;;10.82;7.65;;;;;;;;;;5091854;28;20059;-75
2022/03/23 03:21:13;;;;;;;9.65;7.47;;;;;;;;;;5092129;28;20099;-75
2022/03/23 03:23:42;;;;;;;10.23;7.25;;;;;;;;;;5091288;28;20546;-75
2022/03/23 03:26:08;;;;;;;8.82;6.45;;;;;;;;;;5091826;28;20396;-74
2022/03/23 03:28:35;;;;;;;10.65;7.47;;;;;;;;;;5091240;28;20020;-76
2022/03/23 03:31:05;;;;;;;11.38;6.90;;;;;;;;;;5091674;28;20034;-74
2022/03/23 03:33:31;;;;;;;8.63;6.53;;;;;;;;;;5091736;28;20095;-72
2022/03/23 03:35:58;;;;;;;11.25;7.70;;;;;;;;;;5090747;28;20047;-71
2022/03/23 03:38:24;;;;;;;11.13;8.05;;;;;;;;;;5091729;28;20460;-73
2022/03/23 03:40:50;;;;;;;9.30;7.40;;;;;;;;;;5091425;28;20498;-71
2022/03/23 03:43:16;;;;;;;11.07;7.88;;;;;;;;;;5090958;28;20026;-72
2022/03/23 03:45:42;;;;;;;10.15;7.53;;;;;;;;;;5091313;28;20024;-72
2022/03/23 03:48:09;;;;;;;10.30;7.25;;;;;;;;;;5091377;28;20020;-73
2022/03/23 03:50:35;;;;;;;10.32;7.28;;;;;;;;;;5090606;28;20028;-73
2022/03/23 03:53:01;;;;;;;10.30;7.75;;;;;;;;;;5091128;28;20024;-72
2022/03/23 03:55:27;;;;;;;9.48;7.47;;;;;;;;;;5090383;28;20028;-77
2022/03/23 03:57:53;;;;;;;9.07;7.30;;;;;;;;;;5091299;28;20024;-77
2022/03/23 04:00:19;;;;;;;13.38;7.78;;;;;;;;;;5091069;28;20109;-75
2022/03/23 04:02:45;;;;;;;11.60;7.60;;;;;;;;;;5091000;28;20056;-75
2022/03/23 04:05:11;;;;;;;10.75;7.18;;;;;;;;;;5091267;28;20088;-80
2022/03/23 04:07:37;;;;;;;10.27;7.50;;;;;;;;;;5090976;28;20027;-76
2022/03/23 04:10:04;;;;;;;11.35;7.80;;;;;;;;;;5091443;28;20024;-75
2022/03/23 04:12:30;;;;;;;10.27;7.90;;;;;;;;;;5091584;28;20028;-76
2022/03/23 04:14:56;;;;;;;9.90;7.60;;;;;;;;;;5090707;28;20043;-73
2022/03/23 04:17:22;;;;;;;10.32;7.82;;;;;;;;;;5090954;28;20028;-73
2022/03/23 04:19:48;;;;;;;11.70;8.18;;;;;;;;;;5090942;28;20478;-73
2022/03/23 04:22:14;;;;;;;10.40;7.70;;;;;;;;;;5091170;28;20140;-75
2022/03/23 04:24:40;;;;;;;12.50;8.25;;;;;;;;;;5090776;28;20053;-79
2022/03/23 04:27:06;;;;;;;9.85;7.82;;;;;;;;;;5089699;28;20484;-78
2022/03/23 04:29:32;;;;;;;9.88;7.30;;;;;;;;;;5091062;28;20031;-74
2022/03/23 04:31:58;;;;;;;11.45;8.07;;;;;;;;;;5091196;28;20016;-76
2022/03/23 04:34:25;;;;;;;14.57;8.63;;;;;;;;;;5089745;28;20035;-78
2022/03/23 04:36:51;;;;;;;9.60;7.70;;;;;;;;;;5089524;28;20839;-75
2022/03/23 04:39:17;;;;;;;10.25;7.75;;;;;;;;;;5091107;28;20529;-77
2022/03/23 04:41:43;;;;;;;14.45;7.85;;;;;;;;;;5090965;28;20035;-74
2022/03/23 04:44:10;;;;;;;9.23;7.07;;;;;;;;;;5090946;28;20036;-76
2022/03/23 04:46:36;;;;;;;12.18;7.47;;;;;;;;;;5090334;28;20028;-79
2022/03/23 04:49:02;;;;;;;11.55;8.10;;;;;;;;;;5089866;28;20028;-78
2022/03/23 04:51:30;;;;;;;11.25;7.43;;;;;;;;;;5091204;28;20043;-76
2022/03/23 04:53:56;;;;;;;9.25;7.47;;;;;;;;;;5089600;28;20020;-79
2022/03/23 04:56:22;;;;;;;11.82;8.38;;;;;;;;;;5089508;28;20047;-79
2022/03/23 04:58:48;;;;;;;12.55;8.45;;;;;;;;;;5089058;28;20020;-77
2022/03/23 05:01:14;;;;;;;10.57;7.63;;;;;;;;;;5090866;28;20024;-80
2022/03/23 05:03:40;;;;;;;12.27;8.10;;;;;;;;;;5090501;28;20030;-79
2022/03/23 05:06:06;;;;;;;11.95;8.23;;;;;;;;;;5090736;28;20031;-76
2022/03/23 05:08:32;;;;;;;11.85;8.35;;;;;;;;;;5090490;28;20024;-74
2022/03/23 05:10:58;;;;;;;11.10;7.93;;;;;;;;;;5091097;28;20034;-78
2022/03/23 05:13:24;;;;;;;11.00;8.00;;;;;;;;;;5089072;28;20108;-77
2022/03/23 05:15:50;;;;;;;12.10;7.88;;;;;;;;;;5090365;28;20036;-78
2022/03/23 05:18:17;;;;;;;11.45;7.88;;;;;;;;;;5089341;28;20120;-77
2022/03/23 05:20:43;;;;;;;11.75;8.18;;;;;;;;;;5094285;28;20032;-79
2022/03/23 05:23:09;;;;;;;10.32;8.45;;;;;;;;;;5092635;28;20028;-79
2022/03/23 05:25:35;;;;;;;13.07;8.68;;;;;;;;;;5093755;28;20039;-74
2022/03/23 05:28:01;;;;;;;10.32;8.05;;;;;;;;;;5094554;28;20020;-78
2022/03/23 05:30:27;;;;;;;9.90;7.43;;;;;;;;;;5093706;28;20028;-75
2022/03/23 05:32:53;;;;;;;11.68;8.40;;;;;;;;;;5093755;28;20024;-76
2022/03/23 05:35:19;;;;;;;9.50;7.65;;;;;;;;;;5094042;28;20103;-80
2022/03/23 05:37:45;;;;;;;13.77;8.52;;;;;;;;;;5093796;28;20060;-77
2022/03/23 05:40:12;;;;;;;12.73;8.93;;;;;;;;;;5093995;28;20020;-78
2022/03/23 05:42:38;;;;;;;12.38;8.75;;;;;;;;;;5092415;28;20123;-80
2022/03/23 05:45:04;;;;;;;10.98;8.65;;;;;;;;;;5093548;28;20021;-77
2022/03/23 05:47:30;;;;;;;12.48;8.43;;;;;;;;;;5094062;28;20039;-76
2022/03/23 05:49:56;;;;;;;13.10;8.80;;;;;;;;;;5093514;28;20384;-74
2022/03/23 05:52:22;;;;;;;11.30;8.85;;;;;;;;;;5093659;28;20035;-76
2022/03/23 05:54:48;;;;;;;11.75;8.75;;;;;;;;;;5093398;28;20024;-72
2022/03/23 05:57:14;;;;;;;15.85;8.82;;;;;;;;;;5091964;28;20126;-73
2022/03/23 05:59:40;;;;;;;12.18;8.43;;;;;;;;;;5092067;28;20073;-71
2022/03/23 06:02:06;;;;;;;11.45;8.82;;;;;;;;;;5092609;28;20492;-74
2022/03/23 06:04:32;;;;;;;10.77;8.30;;;;;;;;;;5093547;28;20028;-73
2022/03/23 06:06:58;;;;;;;13.45;9.90;;;;;;;;;;5093850;28;20024;-75
2022/03/23 06:09:24;;;;;;;12.43;8.27;;;;;;;;;;5093492;28;20511;-76
2022/03/23 06:11:51;;;;;;;10.27;8.40;;;;;;;;;;5091347;28;20016;-74
2022/03/23 06:14:17;;;;;;;12.35;8.45;;;;;;;;;;5093465;28;20024;-77
2022/03/23 06:16:43;;;;;;;12.23;8.70;;;;;;;;;;5093144;28;20032;-73
2022/03/23 06:19:10;;;;;;;13.75;8.85;;;;;;;;;;5093385;28;20107;-71
2022/03/23 06:21:36;;;;;;;13.13;8.50;;;;;;;;;;5093008;28;20024;-69
2022/03/23 06:24:02;;;;;;;12.10;8.80;;;;;;;;;;5093436;28;20016;-70
2022/03/23 06:26:28;;;;;;;14.73;9.07;;;;;;;;;;5092631;28;20036;-70
2022/03/23 06:28:54;;;;;;;10.30;8.23;;;;;;;;;;5092521;28;20086;-69
2022/03/23 06:31:21;;;;;;;14.43;8.38;;;;;;;;;;5091790;28;20616;-70
2022/03/23 06:33:47;;;;;;;12.07;9.20;;;;;;;;;;5092142;28;20345;-72
2022/03/23 06:36:13;;;;;;;11.98;8.63;;;;;;;;;;5092888;28;20040;-70
2022/03/23 06:38:39;;;;;;;15.13;9.32;;;;;;;;;;5090897;28;20031;-70
2022/03/23 06:41:05;;;;;;;11.15;8.57;;;;;;;;;;5091438;28;20127;-70
2022/03/23 06:43:31;;;;;;;12.27;9.20;;;;;;;;;;5093047;28;20069;-70
2022/03/23 06:45:57;;;;;;;11.35;8.35;;;;;;;;;;5092243;28;20032;-73
2022/03/23 06:48:23;;;;;;;13.30;9.35;;;;;;;;;;5092871;28;20024;-73
2022/03/23 06:50:49;;;;;;;12.52;9.52;;;;;;;;;;5091229;28;20020;-72
2022/03/23 06:53:15;;;;;;;11.43;9.15;;;;;;;;;;5090333;28;20027;-72
2022/03/23 06:55:41;;;;;;;11.02;8.98;;;;;;;;;;5091049;28;20036;-73
2022/03/23 06:58:07;;;;;;;12.38;9.35;;;;;;;;;;5091065;28;20095;-72
2022/03/23 07:00:33;;;;;;;13.35;8.40;;;;;;;;;;5091817;28;20506;-71
2022/03/23 07:02:59;;;;;;;13.15;9.23;;;;;;;;;;5092904;28;20095;-71
2022/03/23 07:05:25;;;;;;;13.85;9.65;;;;;;;;;;5092509;28;20095;-72
2022/03/23 07:10:36;;;;;;;13.32;9.27;;;;;;;;;;5091825;28;20031;-76
2022/03/23 07:13:02;;;;;;;11.85;9.32;;;;;;;;;;5091634;28;20400;-72
2022/03/23 07:15:29;;;;;;;13.10;10.30;;;;;;;;;;5089534;28;20024;-75
2022/03/23 07:17:55;;;;;;;14.65;9.88;;;;;;;;;;5090108;28;20028;-72
2022/03/23 07:20:21;;;;;;;15.50;12.25;;;;;;;;;;5091023;28;20391;-72
2022/03/23 07:22:47;;;;;;;13.38;10.10;;;;;;;;;;5091956;28;20027;-76
2022/03/23 07:25:13;;;;;;;14.85;10.50;;;;;;;;;;5092466;28;20028;-75
2022/03/23 07:27:39;;;;;;;16.63;11.82;;;;;;;;;;5095565;28;20043;-75
2022/03/23 07:30:06;;;;;;;16.48;11.20;;;;;;;;;;5091698;28;20541;-73
2022/03/23 07:32:32;;;;;;;16.70;10.50;;;;;;;;;;5091603;28;20040;-71
2022/03/23 07:34:58;;;;;;;14.73;10.55;;;;;;;;;;5091412;28;20032;-76
2022/03/23 07:37:24;;;;;;;20.58;10.10;;;;;;;;;;5089856;28;20556;-75
2022/03/23 07:39:50;;;;;;;14.32;9.90;;;;;;;;;;5090612;28;20032;-73
2022/03/23 07:42:16;;;;;;;13.65;9.80;;;;;;;;;;5090550;28;20107;-72
2022/03/23 07:44:43;;;;;;;18.90;10.13;;;;;;;;;;5090929;28;20372;-75
2022/03/23 07:47:10;;;;;;;18.27;10.70;;;;;;;;;;5089994;28;20028;-72
2022/03/23 07:49:36;;;;;;;14.95;9.43;;;;;;;;;;5091514;28;20153;-73
2022/03/23 07:52:03;;;;;;;15.65;9.30;;;;;;;;;;5091123;28;20073;-72
2022/03/23 07:54:29;;;;;;;16.95;10.57;;;;;;;;;;5091458;28;20031;-70
2022/03/23 07:56:55;;;;;;;13.30;9.88;;;;;;;;;;5091230;28;20106;-73
2022/03/23 07:59:21;;;;;;;14.90;10.68;;;;;;;;;;5090748;28;20032;-73
2022/03/23 08:01:47;;;;;;;13.70;9.98;;;;;;;;;;5091140;28;20031;-73
2022/03/23 08:04:13;;;;;;;12.57;10.02;;;;;;;;;;5091507;28;20020;-72
2022/03/23 08:06:39;;;;;;;14.95;9.43;;;;;;;;;;5091215;28;20043;-73
2022/03/23 08:09:05;;;;;;;12.60;9.30;;;;;;;;;;5090914;28;20085;-72
2022/03/23 08:11:31;;;;;;;15.05;9.35;;;;;;;;;;5091127;28;20461;-73
2022/03/23 08:13:58;;;;;;;15.57;10.27;;;;;;;;;;5091367;28;20056;-72
2022/03/23 08:16:24;;;;;;;16.52;9.98;;;;;;;;;;5091385;28;20042;-72
2022/03/23 08:18:52;;;;;;;14.40;9.77;;;;;;;;;;5090683;28;20399;-74
2022/03/23 08:21:19;;;;;;;14.82;9.15;;;;;;;;;;5089666;28;20483;-72
2022/03/23 08:23:45;;;;;;;13.13;9.82;;;;;;;;;;5090850;28;20019;-72
2022/03/23 08:26:14;;;;;;;17.95;9.63;;;;;;;;;;5084974;28;20028;-73
2022/03/23 08:28:40;;;;;;;12.23;8.82;;;;;;;;;;5089084;28;20491;-72
2022/03/23 08:31:06;;;;;;;12.48;9.55;;;;;;;;;;5111203;28;20039;-72
2022/03/23 08:33:34;;;;;;;15.18;8.68;;;;;;;;;;5102852;28;20016;-73
2022/03/23 08:36:01;;;;;;;13.90;9.60;;;;;;;;;;5090985;28;20039;-73
2022/03/23 08:38:27;;;;;;;14.82;8.85;;;;;;;;;;5091144;28;20791;-72
2022/03/23 08:40:53;;;;;;;12.85;8.77;;;;;;;;;;5089441;28;20039;-73
2022/03/23 08:43:19;;;;;;;11.48;8.70;;;;;;;;;;5089693;28;20076;-73
2022/03/23 08:45:45;;;;;;;13.43;8.73;;;;;;;;;;5108986;28;20476;-72
2022/03/23 08:48:11;;;;;;;14.60;9.15;;;;;;;;;;5095160;28;20020;-72
2022/03/23 08:50:40;;;;;;;12.07;8.45;;;;;;;;;;5090117;28;20032;-73
2022/03/23 08:53:06;;;;;;;14.93;9.18;;;;;;;;;;5088946;28;20028;-73
2022/03/23 08:55:33;;;;;;;11.48;8.10;;;;;;;;;;5094384;28;20035;-73
2022/03/23 08:57:59;;;;;;;12.43;8.80;;;;;;;;;;5093763;28;20065;-73
2022/03/23 09:00:25;;;;;;;14.90;8.73;;;;;;;;;;5112787;28;20030;-73
2022/03/23 09:02:52;;;;;;;13.10;8.40;;;;;;;;;;5114954;28;20494;-73
2022/03/23 09:05:19;;;;;;;15.85;9.30;;;;;;;;;;5115070;28;20076;-73
2022/03/23 09:07:45;;;;;;;13.05;9.10;;;;;;;;;;5114800;28;20042;-73
2022/03/23 09:10:13;;;;;;;14.93;8.07;;;;;;;;;;5093773;28;20024;-73
2022/03/23 09:12:39;;;;;;;12.35;8.27;;;;;;;;;;5093556;28;20028;-73
2022/03/23 09:15:06;;;;;;;11.00;8.63;;;;;;;;;;5113934;28;20030;-73
2022/03/23 09:17:32;;;;;;;13.13;9.18;;;;;;;;;;5099809;28;20035;-73
2022/03/23 09:20:00;;;;;;;15.48;10.10;;;;;;;;;;5095012;28;20024;-74
2022/03/23 09:22:27;;;;;;;17.15;12.55;;;;;;;;;;5089968;28;20490;-73
2022/03/23 09:24:53;;;;;;;23.23;14.63;;;;;;;;;;5098453;28;20027;-73
2022/03/23 09:27:19;;;;;;;27.17;17.70;;;;;;;;;;5113226;28;20043;-75
2022/03/23 09:29:46;;;;;;;29.27;18.52;;;;;;;;;;5100453;28;20016;-74
2022/03/23 09:32:12;;;;;;;29.60;18.02;;;;;;;;;;5092976;28;20165;-73
2022/03/23 09:34:39;;;;;;;28.95;19.67;;;;;;;;;;5093569;28;20035;-73
2022/03/23 09:39:51;;;;;;;35.00;20.08;;;;;;;;;;5094071;28;20042;-73
2022/03/23 09:42:21;;;;;;;31.02;19.17;;;;;;;;;;5093712;28;20396;-74
2022/03/23 09:44:47;;;;;;;38.40;21.55;;;;;;;;;;5093705;28;20392;-74
2022/03/23 09:47:13;;;;;;;37.20;20.55;;;;;;;;;;5095525;28;20020;-74
2022/03/23 09:49:40;;;;;;;32.72;21.60;;;;;;;;;;5101145;28;20039;-73
2022/03/23 09:52:06;;;;;;;31.80;22.10;;;;;;;;;;5107992;28;20023;-74
2022/03/23 09:54:32;;;;;;;33.78;21.33;;;;;;;;;;5104601;28;20024;-74
2022/03/23 09:56:58;;;;;;;35.40;21.40;;;;;;;;;;5107549;28;20042;-74
2022/03/23 09:59:24;;;;;;;32.67;20.77;;;;;;;;;;5106131;28;20019;-75
2022/03/23 10:02:03;;;;;;;27.15;18.85;;;;;;;;;;5102231;28;20419;-73
2022/03/23 10:04:47;;;;;;;28.17;18.77;;;;;;;;;;5098037;28;20488;-74
2022/03/23 10:07:15;;;;;;;29.55;18.90;;;;;;;;;;5088980;28;20148;-73
2022/03/23 10:10:00;;;;;;;30.35;18.63;;;;;;;;;;5089834;28;20510;-74
2022/03/23 10:12:45;;;;;;;29.17;17.80;;;;;;;;;;5089502;28;20094;-73
2022/03/23 10:15:29;;;;;;;23.08;16.63;;;;;;;;;;5111851;28;20030;-75
2022/03/23 10:18:14;;;;;;;31.63;17.30;;;;;;;;;;5105773;28;20206;-75
2022/03/23 10:20:40;;;;;;;25.08;15.68;;;;;;;;;;5090939;28;20123;-75
2022/03/23 10:23:06;;;;;;;24.20;15.43;;;;;;;;;;5092815;28;20454;-86
2022/03/23 10:25:32;;;;;;;22.02;14.63;;;;;;;;;;5091545;28;20034;-73
2022/03/23 10:27:59;;;;;;;22.98;14.60;;;;;;;;;;5093055;28;20420;-74
2022/03/23 10:30:38;;;;;;;21.50;14.32;;;;;;;;;;5103150;28;20465;-73
2022/03/23 10:33:05;;;;;;;21.02;12.82;;;;;;;;;;5109015;28;20050;-74
2022/03/23 10:35:40;;;;;;;22.70;13.07;;;;;;;;;;5093781;28;20056;-73
2022/03/23 10:38:22;;;;;;;19.80;12.13;;;;;;;;;;5091850;28;20486;-73
2022/03/23 10:40:49;;;;;;;22.25;12.23;;;;;;;;;;5091184;28;20020;-77
2022/03/23 10:43:19;;;;;;;21.27;13.85;;;;;;;;;;5092523;28;20028;-73
2022/03/23 10:45:45;;;;;;;17.50;11.48;;;;;;;;;;5092492;28;20027;-75
2022/03/23 10:48:13;;;;;;;15.00;12.00;;;;;;;;;;5091533;28;20024;-73
2022/03/23 10:50:50;;;;;;;19.55;11.90;;;;;;;;;;5091217;28;20028;-76
2022/03/23 10:53:16;;;;;;;18.42;11.15;;;;;;;;;;5092662;28;20476;-77
2022/03/23 10:55:47;;;;;;;18.00;11.32;;;;;;;;;;5092309;28;20036;-73
2022/03/23 10:58:19;;;;;;;14.88;9.85;;;;;;;;;;5091096;28;20016;-76
2022/03/23 11:00:45;;;;;;;13.48;9.52;;;;;;;;;;5092285;28;20149;-74
2022/03/23 11:03:11;;;;;;;15.48;9.98;;;;;;;;;;5092559;28;20027;-73
2022/03/23 11:05:38;;;;;;;15.95;9.50;;;;;;;;;;5092281;28;20032;-80
2022/03/23 11:08:07;;;;;;;16.15;9.60;;;;;;;;;;5111839;28;20098;-74
2022/03/23 11:16:24;;;;;;;12.90;8.68;;;;;;;;;;5111822;28;20035;-74
2022/03/23 11:18:56;;;;;;;15.73;8.00;;;;;;;;;;5112459;28;20563;-74
2022/03/23 11:21:22;;;;;;;12.32;7.40;;;;;;;;;;5111221;28;20208;-75
2022/03/23 11:23:48;;;;;;;11.40;7.15;;;;;;;;;;5091612;28;20549;-75
2022/03/23 11:26:14;;;;;;;17.35;8.00;;;;;;;;;;5088281;28;20391;-73
2022/03/23 11:28:41;;;;;;;10.35;7.28;;;;;;;;;;5103768;28;20028;-75
2022/03/23 11:31:08;;;;;;;9.82;6.97;;;;;;;;;;5112431;28;20024;-82
2022/03/23 11:33:35;;;;;;;8.85;7.07;;;;;;;;;;5092349;28;20077;-78
2022/03/23 11:36:03;;;;;;;14.02;8.23;;;;;;;;;;5090476;28;20020;-74
2022/03/23 11:38:30;;;;;;;12.07;7.35;;;;;;;;;;5095061;28;20110;-75
2022/03/23 11:40:57;;;;;;;10.63;7.03;;;;;;;;;;5090060;28;20027;-73
2022/03/23 11:43:26;;;;;;;11.63;7.45;;;;;;;;;;5103516;28;20032;-73
2022/03/23 11:45:53;;;;;;;12.65;7.07;;;;;;;;;;5109807;28;20032;-73
2022/03/23 11:48:30;;;;;;;8.15;6.30;;;;;;;;;;5091481;28;20384;-74
2022/03/23 11:51:21;;;;;;;12.27;7.05;;;;;;;;;;5091362;28;20020;-73
2022/03/23 11:53:52;;;;;;;11.75;7.60;;;;;;;;;;5091501;28;20020;-74
2022/03/23 11:56:26;;;;;;;12.02;6.18;;;;;;;;;;5091383;28;20036;-74
2022/03/23 11:58:52;;;;;;;9.88;6.88;;;;;;;;;;5089954;28;20028;-72
2022/03/23 12:01:19;;;;;;;11.23;6.57;;;;;;;;;;5089881;28;20494;-73
2022/03/23 12:03:50;;;;;;;10.45;5.35;;;;;;;;;;5089845;28;20127;-73
2022/03/23 12:06:20;;;;;;;11.60;5.60;;;;;;;;;;5087950;28;20046;-74
2022/03/23 12:08:47;;;;;;;9.30;6.28;;;;;;;;;;5089919;28;20046;-75
2022/03/23 12:11:32;;;;;;;9.95;6.43;;;;;;;;;;5090088;28;20020;-74
2022/03/23 12:13:58;;;;;;;9.15;6.60;;;;;;;;;;5087336;28;20460;-76
2022/03/23 12:16:43;;;;;;;10.82;5.68;;;;;;;;;;5089050;28;20028;-86
2022/03/23 12:19:10;;;;;;;14.32;5.85;;;;;;;;;;5088463;28;20264;-74
2022/03/23 12:21:44;;;;;;;7.90;5.70;;;;;;;;;;5089773;28;20035;-74
2022/03/23 12:24:14;;;;;;;11.13;5.88;;;;;;;;;;5088671;28;20498;-77
2022/03/23 12:26:43;;;;;;;10.30;6.25;;;;;;;;;;5089488;28;20032;-73
2022/03/23 12:29:13;;;;;;;10.48;5.88;;;;;;;;;;5092150;28;20099;-74
2022/03/23 12:31:40;;;;;;;9.38;6.32;;;;;;;;;;5093968;28;20020;-78
2022/03/23 12:34:07;;;;;;;10.68;6.25;;;;;;;;;;5092607;28;20035;-74
2022/03/23 12:36:57;;;;;;;11.77;6.22;;;;;;;;;;5091132;28;20043;-73
2022/03/23 12:39:27;;;;;;;10.57;6.65;;;;;;;;;;5092551;28;20028;-73
2022/03/23 12:41:54;;;;;;;11.52;5.72;;;;;;;;;;5090880;28;20024;-74
2022/03/23 12:44:30;;;;;;;10.43;6.82;;;;;;;;;;5093443;28;20043;-73
2022/03/23 12:46:57;;;;;;;13.07;5.93;;;;;;;;;;5092164;28;20016;-76
2022/03/23 12:58:24;;;;;;;9.32;5.30;;;;;;;;;;5077820;28;20140;-73
2022/03/23 13:00:51;;;;;;;8.03;5.57;;;;;;;;;;5062193;28;20028;-74
2022/03/23 13:03:22;;;;;;;7.97;4.95;;;;;;;;;;5078191;28;20033;-75
2022/03/23 13:05:51;;;;;;;9.18;5.25;;;;;;;;;;5078651;28;20403;-75
2022/03/23 13:08:27;;;;;;;10.00;5.53;;;;;;;;;;5078437;28;20047;-73
2022/03/23 13:10:58;;;;;;;6.75;4.78;;;;;;;;;;5075945;28;20036;-73
2022/03/23 13:13:24;;;;;;;7.22;4.82;;;;;;;;;;5075082;28;20034;-73
2022/03/23 13:15:50;;;;;;;8.18;4.95;;;;;;;;;;5096579;28;20688;-79
2022/03/23 13:18:16;;;;;;;8.75;5.78;;;;;;;;;;5077333;28;20134;-77
2022/03/23 13:20:52;;;;;;;8.13;5.30;;;;;;;;;;5085572;28;20180;-76
2022/03/23 13:23:19;;;;;;;7.28;5.28;;;;;;;;;;5079130;28;20032;-75
2022/03/23 13:25:47;;;;;;;9.25;5.20;;;;;;;;;;5077155;28;20453;-77
2022/03/23 13:28:13;;;;;;;6.90;5.05;;;;;;;;;;5077198;28;20102;-73
2022/03/23 13:30:40;;;;;;;6.65;4.70;;;;;;;;;;5073741;28;20036;-73
2022/03/23 13:33:15;;;;;;;6.38;4.38;;;;;;;;;;5080711;28;20043;-76
2022/03/23 13:35:45;;;;;;;7.22;4.70;;;;;;;;;;5073544;28;20035;-78
2022/03/23 13:38:11;;;;;;;8.18;5.10;;;;;;;;;;5072105;28;20021;-73
2022/03/23 13:43:27;;;;;;;7.38;4.80;;;;;;;;;;5081459;28;20035;-72
2022/03/23 13:45:56;;;;;;;7.97;4.57;;;;;;;;;;5083393;28;20435;-73
2022/03/23 13:48:22;;;;;;;7.13;4.35;;;;;;;;;;5081174;28;20051;-73
2022/03/23 13:50:49;;;;;;;8.30;4.78;;;;;;;;;;5079568;28;20559;-81
2022/03/23 13:53:18;;;;;;;7.65;4.10;;;;;;;;;;5075298;28;20477;-72
2022/03/23 13:55:47;;;;;;;7.03;4.72;;;;;;;;;;5076667;28;20035;-77
2022/03/23 13:58:16;;;;;;;5.93;3.97;;;;;;;;;;5077982;28;20036;-74
2022/03/23 14:00:42;;;;;;;11.55;3.95;;;;;;;;;;5076800;28;20019;-74
2022/03/23 14:03:08;;;;;;;7.75;4.75;;;;;;;;;;5076349;28;20033;-75
2022/03/23 14:05:36;;;;;;;6.40;3.97;;;;;;;;;;5091799;28;20020;-74
2022/03/23 14:08:02;;;;;;;4.63;3.80;;;;;;;;;;5088316;28;20033;-75
2022/03/23 14:10:36;;;;;;;5.90;3.90;;;;;;;;;;5092139;28;20026;-74
2022/03/23 14:13:04;;;;;;;13.82;4.72;;;;;;;;;;5091981;28;20015;-80
2022/03/23 14:15:35;;;;;;;7.38;4.10;;;;;;;;;;5073477;28;20036;-72
2022/03/23 14:18:01;;;;;;;7.97;3.38;;;;;;;;;;5075724;28;20107;-77
2022/03/23 14:20:28;;;;;;;7.03;4.50;;;;;;;;;;5083765;28;20028;-75
2022/03/23 14:22:54;;;;;;;5.57;3.85;;;;;;;;;;5087840;28;20027;-81
2022/03/23 14:25:20;;;;;;;6.30;4.47;;;;;;;;;;5087436;28;20028;-74
2022/03/23 14:27:49;;;;;;;7.43;4.10;;;;;;;;;;5086702;28;20023;-76
2022/03/23 14:30:18;;;;;;;6.97;4.35;;;;;;;;;;5088444;28;20020;-75
2022/03/23 14:32:52;;;;;;;7.70;4.28;;;;;;;;;;5087404;28;20020;-75
2022/03/23 14:35:20;;;;;;;6.47;4.18;;;;;;;;;;5092132;28;20028;-73
2022/03/23 14:37:54;;;;;;;6.47;3.83;;;;;;;;;;5092333;28;20110;-73
2022/03/23 14:40:23;;;;;;;6.40;4.30;;;;;;;;;;5091758;28;20165;-73
2022/03/23 14:42:49;;;;;;;5.55;3.88;;;;;;;;;;5090794;28;20024;-75
2022/03/23 14:45:30;;;;;;;6.63;3.63;;;;;;;;;;5100226;28;20020;-77
2022/03/23 14:47:58;;;;;;;8.38;4.32;;;;;;;;;;5091262;28;20016;-74
2022/03/23 14:50:24;;;;;;;7.13;4.20;;;;;;;;;;5091896;28;20024;-76
2022/03/23 14:52:50;;;;;;;7.75;4.40;;;;;;;;;;5088336;28;20024;-75
2022/03/23 14:55:17;;;;;;;9.13;4.32;;;;;;;;;;5099663;28;20028;-76
2022/03/23 14:57:43;;;;;;;6.13;3.88;;;;;;;;;;5091359;28;20107;-76
2022/03/23 15:00:09;;;;;;;6.63;3.20;;;;;;;;;;5091993;28;20024;-77
2022/03/23 15:02:36;;;;;;;9.23;4.40;;;;;;;;;;5091099;28;20020;-80
2022/03/23 15:05:02;;;;;;;9.77;4.03;;;;;;;;;;5092863;28;20024;-77
2022/03/23 15:13:17;;;;;;;7.85;3.58;;;;;;;;;;5092625;28;20039;-77